Airfield :
LOGIN :

Register | Disclaimer

   EN    FR    IT 

 










Legend :    VFR   Marginal VFR   IFR   Intensive IFR   Very Intensive IFR
Visi :
Ceiling :
>= 8 km
>= 3000ft
5 to 8 km
1000 to 3000 ft
1500m to 5 km
500 to 1000 ft
800 to 1500m
200 to 500 ft
< 800m
< 200 ft
Symbols :   Thunderstorms  Fog  Heavy snow  Heavy precipitations  Wind > 20 kt
SIGMETs :     Misc.  Thunderstorms  Icing  Turbulence  Mountain Waves  Volcanic Ashes






- Airport Elevation : 330 ft
- IATA code : LVA


LFOV - Laval-Entrammes

CURRENT METAR :
  • 151400Z AUTO 24008KT 200V270 9999 SCT019 BKN025 BKN034 22/17 Q1007

EXPIRED METARs :
  • 151330Z AUTO 22011KT 180V260 9999 BKN020 BKN026 OVC046 21/17 Q1007
  • 151300Z AUTO 17005KT 130V200 9999 FEW016 BKN023 OVC028 20/17 Q1007
  • 151230Z AUTO 16004KT 130V190 9999 OVC029 20/18 Q1007
  • 151200Z AUTO 18003KT 9999 OVC038 19/17 Q1007
  • 151130Z AUTO VRB02KT 9999 -RA OVC040/// ///CB 19/16 Q1007
  • 151100Z AUTO 03005KT 9999 OVC048/// ///CB 19/16 Q1007
  • 151030Z AUTO 31009KT 270V340 9999 FEW012/// BKN047/// OVC058/// ///CB 17/16 Q1007
  • 151000Z AUTO 11007KT 9999 ///CB 17/16 Q1007
  • 150930Z AUTO 10009KT 9999 ///CB 16/15 Q1007

TAF N/A



MET'MAP, your aeronautical weather chart ! - Copyright ORBIFLY December 2007 - Disclaimer

ORBIFLY MET'MAP TEAM :

Programming & Development : Alexandra Zaïnal
Original concept : Baudouin d'Aumeries
Technical & hardware support : Manuel Goepfert
Assistance : Marc-Olivier Méhu




SOURCES & CREDITS :

   NOAA